Time;durP1;ratioP1;P1;durP2;ratioP2;P2;SDS_P1;SDS_P2;PMS_P1;PMS_P2;Temp;Humidity;BMP_temperature;BMP_pressure;BME280_temperature;BME280_humidity;BME280_pressure;Samples;Min_cycle;Max_cycle;Signal;HPM_P1;HPM_P2
2024/02/07 00:00:42;;;;;;;20.20;1.45;;;;;;;;;;4921552;28;20186;-67
2024/02/07 00:03:22;;;;;;;11.20;1.55;;;;;;;;;;4865275;28;20440;-67
2024/02/07 00:06:02;;;;;;;11.40;1.63;;;;;;;;;;4883264;28;20547;-67
2024/02/07 00:08:47;;;;;;;8.57;1.10;;;;;;;;;;4935140;28;20283;-66
2024/02/07 00:12:01;;;;;;;11.25;2.13;;;;;;;;;;4941584;28;20195;-66
2024/02/07 00:14:59;;;;;;;;;;;;;;;;;;;;;
2024/02/07 00:20:18;;;;;;;7.63;1.60;;;;;;;;;;4910491;28;20251;-67
2024/02/07 00:23:12;;;;;;;18.60;1.50;;;;;;;;;;4916917;28;20249;-67
2024/02/07 00:25:49;;;;;;;;;;;;;;;;;;;;;
2024/02/07 00:28:17;;;;;;;9.45;1.63;;;;;;;;;;4918499;28;20339;-67
2024/02/07 00:31:10;;;;;;;;;;;;;;;;;;;;;
2024/02/07 00:33:47;;;;;;;12.70;1.27;;;;;;;;;;4918490;28;20180;-67
2024/02/07 00:36:18;;;;;;;7.07;1.20;;;;;;;;;;4915212;28;20298;-67
2024/02/07 00:39:16;;;;;;;9.18;0.95;;;;;;;;;;4916400;28;20243;-67
2024/02/07 00:42:18;;;;;;;;;;;;;;;;;;;;;
2024/02/07 00:44:59;;;;;;;11.45;1.30;;;;;;;;;;4924903;28;20160;-65
2024/02/07 00:47:29;;;;;;;11.35;1.50;;;;;;;;;;4916108;28;20299;-66
2024/02/07 00:50:04;;;;;;;12.95;1.30;;;;;;;;;;4927916;28;20260;-66
2024/02/07 00:52:30;;;;;;;11.95;1.00;;;;;;;;;;4919310;28;20257;-66
2024/02/07 00:55:04;;;;;;;8.63;1.40;;;;;;;;;;4935834;28;20171;-66
2024/02/07 00:57:33;;;;;;;12.40;1.27;;;;;;;;;;4916979;28;20617;-66
2024/02/07 00:59:59;;;;;;;7.68;1.33;;;;;;;;;;4899666;28;20253;-66
2024/02/07 01:02:26;;;;;;;6.75;1.35;;;;;;;;;;4901011;28;20174;-66
2024/02/07 01:04:55;;;;;;;11.57;1.05;;;;;;;;;;4906108;28;20300;-66
2024/02/07 01:07:33;;;;;;;8.80;1.08;;;;;;;;;;4915706;28;20301;-66
2024/02/07 01:10:03;;;;;;;5.72;0.85;;;;;;;;;;4931267;28;20166;-66
2024/02/07 01:12:32;;;;;;;10.95;1.17;;;;;;;;;;4905101;28;20265;-66
2024/02/07 01:14:58;;;;;;;7.63;1.42;;;;;;;;;;4910548;28;20284;-66
2024/02/07 01:17:24;;;;;;;8.93;1.13;;;;;;;;;;4912971;28;20226;-66
2024/02/07 01:20:05;;;;;;;9.30;1.45;;;;;;;;;;4911734;28;20272;-67
2024/02/07 01:22:54;;;;;;;7.85;1.65;;;;;;;;;;4905488;28;20148;-66
2024/02/07 01:25:59;;;;;;;;;;;;;;;;;;;;;
2024/02/07 01:28:41;;;;;;;11.40;1.35;;;;;;;;;;4910739;28;20189;-66
2024/02/07 01:31:17;;;;;;;9.95;1.30;;;;;;;;;;4938307;28;20163;-66
2024/02/07 01:34:16;;;;;;;5.95;1.13;;;;;;;;;;4905017;28;20173;-66
2024/02/07 01:37:12;;;;;;;10.70;1.25;;;;;;;;;;4904863;28;20316;-66
2024/02/07 01:39:53;;;;;;;9.52;1.40;;;;;;;;;;4921076;28;20160;-66
2024/02/07 01:42:55;;;;;;;;;;;;;;;;;;;;;
2024/02/07 01:45:51;;;;;;;9.30;1.33;;;;;;;;;;4907195;28;20197;-66
2024/02/07 01:48:38;;;;;;;5.82;1.33;;;;;;;;;;4900974;28;20394;-66
2024/02/07 01:54:27;;;;;;;16.65;1.73;;;;;;;;;;4894792;28;20256;-66
2024/02/07 01:56:57;;;;;;;10.45;1.50;;;;;;;;;;4902909;28;20186;-66
2024/02/07 01:59:36;;;;;;;6.03;1.10;;;;;;;;;;4899583;28;20684;-66
2024/02/07 02:05:56;;;;;;;11.23;1.50;;;;;;;;;;4901369;28;20209;-66
2024/02/07 02:09:04;;;;;;;11.38;1.20;;;;;;;;;;4925150;28;20198;-66
2024/02/07 02:11:54;;;;;;;7.80;1.00;;;;;;;;;;4947863;28;20156;-66
2024/02/07 02:15:01;;;;;;;9.68;1.38;;;;;;;;;;4918742;28;20666;-66
2024/02/07 02:18:00;;;;;;;;;;;;;;;;;;;;;
2024/02/07 02:23:53;;;;;;;2.45;0.93;;;;;;;;;;4914854;28;20217;-66
2024/02/07 02:26:49;;;;;;;9.35;1.20;;;;;;;;;;4946624;28;20270;-66
2024/02/07 02:30:19;;;;;;;;;;;;;;;;;;;;;
2024/02/07 02:35:18;;;;;;;12.23;1.67;;;;;;;;;;4868824;28;20450;-66
2024/02/07 02:37:49;;;;;;;11.10;1.63;;;;;;;;;;4882657;28;20606;-66
2024/02/07 02:40:34;;;;;;;;;;;;;;;;;;;;;
2024/02/07 02:46:31;;;;;;;17.27;1.60;;;;;;;;;;4832237;28;20368;-66
2024/02/07 02:48:59;;;;;;;10.43;1.40;;;;;;;;;;4883753;28;20199;-66
2024/02/07 02:51:38;;;;;;;12.63;1.83;;;;;;;;;;4887981;28;20445;-66
2024/02/07 02:54:57;;;;;;;;;;;;;;;;;;;;;
2024/02/07 02:57:13;;;;;;;5.57;1.45;;;;;;;;;;4877774;28;20191;-66
2024/02/07 02:59:48;;;;;;;13.65;1.48;;;;;;;;;;4906633;28;20274;-66
2024/02/07 03:02:20;;;;;;;7.07;1.60;;;;;;;;;;4905962;28;20198;-66
2024/02/07 03:05:26;;;;;;;10.43;1.58;;;;;;;;;;4917825;28;20223;-66
2024/02/07 03:08:19;;;;;;;15.15;1.15;;;;;;;;;;4931005;28;20532;-66
2024/02/07 03:11:27;;;;;;;;;;;;;;;;;;;;;
2024/02/07 03:17:29;;;;;;;6.75;1.27;;;;;;;;;;4910103;28;20236;-66
2024/02/07 03:20:05;;;;;;;13.98;1.90;;;;;;;;;;4898909;28;20181;-66
2024/02/07 03:22:31;;;;;;;13.02;1.27;;;;;;;;;;4896591;28;20319;-66
2024/02/07 03:25:32;;;;;;;10.85;1.70;;;;;;;;;;4913800;28;20272;-66
2024/02/07 03:28:31;;;;;;;6.22;1.17;;;;;;;;;;4908277;28;20615;-66
2024/02/07 03:31:29;;;;;;;8.15;1.30;;;;;;;;;;4910776;28;20167;-66
2024/02/07 03:34:02;;;;;;;8.60;1.27;;;;;;;;;;4906983;28;20208;-66
2024/02/07 03:36:56;;;;;;;6.10;1.20;;;;;;;;;;4918212;28;20226;-66
2024/02/07 03:39:43;;;;;;;5.30;1.10;;;;;;;;;;4889471;28;20201;-66
2024/02/07 03:42:21;;;;;;;14.13;1.38;;;;;;;;;;4887456;28;20557;-66
2024/02/07 03:45:14;;;;;;;16.38;1.42;;;;;;;;;;4935195;28;20506;-66
2024/02/07 03:47:45;;;;;;;9.97;1.20;;;;;;;;;;4923342;28;20290;-66
2024/02/07 03:50:29;;;;;;;11.88;1.30;;;;;;;;;;4902208;28;20484;-66
2024/02/07 03:53:38;;;;;;;7.43;1.20;;;;;;;;;;4905305;28;20258;-66
2024/02/07 03:56:16;;;;;;;12.68;1.40;;;;;;;;;;4899824;28;20217;-66
2024/02/07 03:59:19;;;;;;;4.85;1.30;;;;;;;;;;4900032;28;20294;-66
2024/02/07 04:01:56;;;;;;;2.70;0.88;;;;;;;;;;4914505;28;20194;-66
2024/02/07 04:04:32;;;;;;;5.60;0.90;;;;;;;;;;4889477;28;20191;-66
2024/02/07 04:07:10;;;;;;;5.82;1.30;;;;;;;;;;4889084;28;20149;-66
2024/02/07 04:10:12;;;;;;;10.75;1.15;;;;;;;;;;4888787;28;20144;-66
2024/02/07 05:16:39;;;;;;;2.17;1.00;;;;;;;;;;4924526;28;20193;-66
2024/02/07 05:19:12;;;;;;;6.55;1.08;;;;;;;;;;4925174;28;20163;-66
2024/02/07 05:22:26;;;;;;;7.30;1.00;;;;;;;;;;4900297;28;20207;-66
2024/02/07 05:25:58;;;;;;;9.65;1.00;;;;;;;;;;4920822;28;20518;-66
2024/02/07 05:28:18;;;;;;;9.15;1.15;;;;;;;;;;4911858;28;20275;-66
2024/02/07 05:31:14;;;;;;;5.93;0.98;;;;;;;;;;4908000;28;20159;-66
2024/02/07 05:33:54;;;;;;;7.35;1.20;;;;;;;;;;4899197;28;20217;-66
2024/02/07 05:37:02;;;;;;;5.32;1.10;;;;;;;;;;4911860;28;20240;-66
2024/02/07 05:39:37;;;;;;;17.50;1.35;;;;;;;;;;4910087;28;20543;-66
2024/02/07 05:42:08;;;;;;;9.02;1.10;;;;;;;;;;4931695;27;20427;-67
2024/02/07 05:44:38;;;;;;;2.20;0.90;;;;;;;;;;4933388;28;20222;-66
2024/02/07 05:47:10;;;;;;;8.10;1.20;;;;;;;;;;4913457;28;20295;-66
2024/02/07 05:50:30;;;;;;;;;;;;;;;;;;;;;
2024/02/07 05:53:11;;;;;;;7.65;0.82;;;;;;;;;;4935097;28;20209;-66
2024/02/07 05:55:41;;;;;;;8.15;1.13;;;;;;;;;;4912964;28;20278;-66
2024/02/07 05:58:09;;;;;;;10.88;1.13;;;;;;;;;;4921631;28;20186;-66
2024/02/07 06:00:59;;;;;;;5.80;0.98;;;;;;;;;;4906889;28;20278;-66
2024/02/07 06:03:35;;;;;;;7.60;1.50;;;;;;;;;;4905644;28;20253;-66
2024/02/07 06:06:29;;;;;;;12.45;1.40;;;;;;;;;;4903495;28;20275;-66
2024/02/07 06:08:59;;;;;;;8.68;1.23;;;;;;;;;;4901226;28;20185;-66
2024/02/07 06:12:12;;;;;;;4.97;1.00;;;;;;;;;;4909359;28;20265;-66
2024/02/07 06:14:57;;;;;;;;;;;;;;;;;;;;;
2024/02/07 06:17:43;;;;;;;2.42;0.73;;;;;;;;;;4896225;28;20399;-66
2024/02/07 06:20:18;;;;;;;2.58;1.10;;;;;;;;;;4870934;28;20301;-66
2024/02/07 06:22:50;;;;;;;9.02;1.20;;;;;;;;;;4884709;28;20744;-66
2024/02/07 06:25:17;;;;;;;8.52;1.45;;;;;;;;;;4895169;28;20189;-66
2024/02/07 06:27:47;;;;;;;7.35;1.20;;;;;;;;;;4917753;28;20247;-66
2024/02/07 06:30:38;;;;;;;11.23;1.15;;;;;;;;;;4880092;28;20186;-66
2024/02/07 06:33:09;;;;;;;7.70;1.50;;;;;;;;;;4891145;28;20183;-66
2024/02/07 06:35:44;;;;;;;2.22;0.98;;;;;;;;;;4906559;28;20171;-66
2024/02/07 06:38:12;;;;;;;7.90;1.33;;;;;;;;;;4864963;28;20179;-66
2024/02/07 06:40:47;;;;;;;6.50;1.15;;;;;;;;;;4911145;28;20227;-66
2024/02/07 06:43:13;;;;;;;10.07;1.38;;;;;;;;;;4903517;28;20155;-66
2024/02/07 06:45:39;;;;;;;6.05;0.95;;;;;;;;;;4910580;28;20185;-66
2024/02/07 06:48:10;;;;;;;10.48;1.50;;;;;;;;;;4900917;28;20300;-66
2024/02/07 06:50:46;;;;;;;5.25;1.10;;;;;;;;;;4909935;28;20524;-66
2024/02/07 06:53:24;;;;;;;11.82;1.10;;;;;;;;;;4903764;28;20229;-66
2024/02/07 06:55:53;;;;;;;5.47;0.88;;;;;;;;;;4914093;28;20198;-66
2024/02/07 06:58:20;;;;;;;10.02;1.20;;;;;;;;;;4906134;28;20355;-66
2024/02/07 07:00:53;;;;;;;13.35;1.45;;;;;;;;;;4928469;28;20240;-66
2024/02/07 07:06:28;;;;;;;7.68;1.48;;;;;;;;;;4913837;28;20306;-66
2024/02/07 07:08:55;;;;;;;10.98;1.40;;;;;;;;;;4901645;28;20194;-66
2024/02/07 07:11:24;;;;;;;4.93;1.40;;;;;;;;;;4898699;28;20270;-66
2024/02/07 07:13:59;;;;;;;10.75;1.67;;;;;;;;;;4903418;28;20271;-66
2024/02/07 07:16:50;;;;;;;5.90;1.30;;;;;;;;;;4924707;28;20297;-66
2024/02/07 07:19:17;;;;;;;14.70;1.40;;;;;;;;;;4915976;28;20245;-66
2024/02/07 07:21:55;;;;;;;10.38;1.13;;;;;;;;;;4904534;28;20203;-66
2024/02/07 07:24:37;;;;;;;4.55;1.30;;;;;;;;;;4888969;28;20270;-66
2024/02/07 07:27:15;;;;;;;6.30;1.35;;;;;;;;;;4901536;28;20190;-66
2024/02/07 07:30:41;;;;;;;5.35;1.35;;;;;;;;;;4922090;28;20163;-66
2024/02/07 07:33:18;;;;;;;4.55;1.10;;;;;;;;;;4901544;28;20187;-66
2024/02/07 07:36:13;;;;;;;;;;;;;;;;;;;;;
2024/02/07 07:39:09;;;;;;;;;;;;;;;;;;;;;
2024/02/07 07:42:07;;;;;;;5.55;1.17;;;;;;;;;;4932584;28;20185;-66
2024/02/07 07:44:38;;;;;;;10.10;1.75;;;;;;;;;;4907623;28;20241;-66
2024/02/07 07:47:55;;;;;;;;;;;;;;;;;;;;;
2024/02/07 07:51:08;;;;;;;9.23;2.30;;;;;;;;;;4913370;28;20179;-66
2024/02/07 07:54:25;;;;;;;12.73;1.52;;;;;;;;;;4905782;28;20205;-66
2024/02/07 08:00:45;;;;;;;;;;;;;;;;;;;;;
2024/02/07 08:03:24;;;;;;;4.15;1.33;;;;;;;;;;4950978;28;20189;-66
2024/02/07 08:05:58;;;;;;;3.80;1.65;;;;;;;;;;4900230;28;20494;-66
2024/02/07 08:08:45;;;;;;;7.47;1.45;;;;;;;;;;4905322;28;20540;-66
2024/02/07 08:11:24;;;;;;;;;;;;;;;;;;;;;
2024/02/07 08:14:01;;;;;;;7.10;1.50;;;;;;;;;;4906727;28;20202;-66
2024/02/07 08:16:29;;;;;;;13.73;2.70;;;;;;;;;;4896546;28;20162;-66
2024/02/07 08:18:58;;;;;;;13.27;2.65;;;;;;;;;;4908032;28;20155;-66
2024/02/07 08:21:34;;;;;;;15.63;2.58;;;;;;;;;;4933968;28;20233;-66
2024/02/07 08:24:03;;;;;;;4.72;1.38;;;;;;;;;;4900149;28;20569;-66
2024/02/07 08:30:01;;;;;;;9.50;1.85;;;;;;;;;;4859938;28;20084;-66
2024/02/07 08:32:27;;;;;;;14.60;2.05;;;;;;;;;;4916577;28;20190;-66
2024/02/07 08:35:04;;;;;;;4.07;1.35;;;;;;;;;;4922687;28;20194;-66
2024/02/07 08:37:58;;;;;;;;;;;;;;;;;;;;;
2024/02/07 08:41:01;;;;;;;10.70;1.90;;;;;;;;;;4920247;28;20206;-66
2024/02/07 08:43:49;;;;;;;6.65;2.13;;;;;;;;;;4915892;28;20202;-66
2024/02/07 08:46:17;;;;;;;6.55;1.80;;;;;;;;;;4924339;28;20175;-66
2024/02/07 08:48:47;;;;;;;7.88;2.17;;;;;;;;;;4904854;28;20190;-66
2024/02/07 08:51:40;;;;;;;6.15;2.10;;;;;;;;;;4904517;28;20274;-66
2024/02/07 08:54:22;;;;;;;;;;;;;;;;;;;;;
2024/02/07 08:56:58;;;;;;;8.65;2.47;;;;;;;;;;4920198;28;20675;-66
2024/02/07 08:59:25;;;;;;;7.53;2.38;;;;;;;;;;4896395;28;20188;-66
2024/02/07 09:02:59;;;;;;;;;;;;;;;;;;;;;
2024/02/07 09:05:32;;;;;;;10.52;2.20;;;;;;;;;;4915715;28;20725;-66
2024/02/07 09:08:23;;;;;;;5.15;2.08;;;;;;;;;;4907371;28;20237;-66
2024/02/07 09:11:18;;;;;;;11.38;2.90;;;;;;;;;;4930772;28;20257;-66
2024/02/07 09:14:30;;;;;;;14.13;2.70;;;;;;;;;;4898664;28;20219;-66
2024/02/07 09:17:33;;;;;;;;;;;;;;;;;;;;;
2024/02/07 09:20:19;;;;;;;15.95;2.95;;;;;;;;;;4927450;28;20264;-66
2024/02/07 09:23:15;;;;;;;10.82;2.47;;;;;;;;;;4902993;28;20239;-66
2024/02/07 09:25:48;;;;;;;13.57;2.83;;;;;;;;;;4920966;28;20218;-65
2024/02/07 09:31:50;;;;;;;11.10;2.67;;;;;;;;;;4906412;28;20054;-66
2024/02/07 09:34:48;;;;;;;;;;;;;;;;;;;;;
2024/02/07 09:37:49;;;;;;;6.00;1.98;;;;;;;;;;4906039;28;20186;-66
2024/02/07 09:40:19;;;;;;;8.50;2.15;;;;;;;;;;4913887;28;20367;-66
2024/02/07 09:46:10;;;;;;;7.07;2.05;;;;;;;;;;4918362;28;20380;-66
2024/02/07 09:48:37;;;;;;;9.13;2.50;;;;;;;;;;4927266;28;20214;-66
2024/02/07 09:51:14;;;;;;;19.05;3.10;;;;;;;;;;4901156;28;20238;-66
2024/02/07 09:53:50;;;;;;;12.30;3.70;;;;;;;;;;4926715;28;20282;-66
2024/02/07 09:56:18;;;;;;;6.60;2.05;;;;;;;;;;4902991;28;20315;-66
2024/02/07 09:58:52;;;;;;;16.45;2.60;;;;;;;;;;4919819;28;20298;-66
2024/02/07 10:01:54;;;;;;;;;;;;;;;;;;;;;
2024/02/07 10:05:01;;;;;;;14.10;2.00;;;;;;;;;;4926005;28;20076;-66
2024/02/07 10:07:48;;;;;;;;;;;;;;;;;;;;;
2024/02/07 10:11:10;;;;;;;;;;;;;;;;;;;;;
2024/02/07 10:17:51;;;;;;;10.40;2.60;;;;;;;;;;4881540;28;20273;-66
2024/02/07 10:20:29;;;;;;;16.88;2.40;;;;;;;;;;4907823;28;20557;-66
2024/02/07 10:22:59;;;;;;;15.48;2.47;;;;;;;;;;4934177;28;20213;-66
2024/02/07 10:25:27;;;;;;;11.98;2.83;;;;;;;;;;4906742;28;20309;-66
2024/02/07 10:28:06;;;;;;;7.57;2.20;;;;;;;;;;4901333;28;20324;-66
2024/02/07 10:31:25;;;;;;;20.10;3.55;;;;;;;;;;4918587;28;20577;-66
2024/02/07 10:34:05;;;;;;;13.20;2.67;;;;;;;;;;4935948;28;20201;-66
2024/02/07 10:36:49;;;;;;;3.67;1.92;;;;;;;;;;4921198;28;20701;-67
2024/02/07 10:40:03;;;;;;;;;;;;;;;;;;;;;
2024/02/07 10:42:33;;;;;;;12.65;2.83;;;;;;;;;;4913501;28;20537;-66
2024/02/07 10:45:33;;;;;;;;;;;;;;;;;;;;;
2024/02/07 10:48:37;;;;;;;14.70;2.88;;;;;;;;;;4924130;28;20197;-66
2024/02/07 10:51:42;;;;;;;13.50;2.55;;;;;;;;;;4890355;28;20314;-66
2024/02/07 10:58:14;;;;;;;8.93;2.30;;;;;;;;;;4900906;28;20363;-66
2024/02/07 11:01:04;;;;;;;14.15;2.65;;;;;;;;;;4902376;28;20206;-66
2024/02/07 11:03:35;;;;;;;9.10;3.10;;;;;;;;;;4889779;28;20357;-66
2024/02/07 11:06:13;;;;;;;14.20;3.30;;;;;;;;;;4900561;28;20272;-66
2024/02/07 11:12:06;;;;;;;9.63;2.72;;;;;;;;;;4908755;28;20268;-66
2024/02/07 11:14:40;;;;;;;12.25;2.65;;;;;;;;;;4907900;28;20180;-66
2024/02/07 11:17:26;;;;;;;;;;;;;;;;;;4901609;28;20378;-66
2024/02/07 11:20:31;;;;;;;13.38;3.13;;;;;;;;;;4914601;28;20497;-66
2024/02/07 11:23:11;;;;;;;;;;;;;;;;;;4908845;28;20350;-66
2024/02/07 11:28:42;;;;;;;14.70;3.65;;;;;;;;;;4917695;28;20229;-66
2024/02/07 11:31:11;;;;;;;10.63;3.58;;;;;;;;;;4892982;28;20541;-66
2024/02/07 11:36:55;;;;;;;13.25;3.13;;;;;;;;;;4911778;28;20246;-66
2024/02/07 11:43:57;;;;;;;;;;;;;;;;;;;;;
2024/02/07 11:46:58;;;;;;;10.80;3.22;;;;;;;;;;4891903;28;20177;-66
2024/02/07 11:50:34;;;;;;;11.80;2.80;;;;;;;;;;4901049;28;20522;-66
2024/02/07 11:52:54;;;;;;;11.85;2.85;;;;;;;;;;4918055;28;20827;-66
2024/02/07 11:56:03;;;;;;;;;;;;;;;;;;;;;
2024/02/07 11:58:36;;;;;;;15.48;3.08;;;;;;;;;;4923141;28;20208;-66
2024/02/07 12:01:29;;;;;;;9.18;3.25;;;;;;;;;;4909243;28;20226;-66
2024/02/07 12:04:00;;;;;;;12.35;3.25;;;;;;;;;;4897670;28;20187;-66
2024/02/07 12:06:39;;;;;;;11.32;3.15;;;;;;;;;;4892796;28;20285;-66
2024/02/07 12:09:09;;;;;;;7.03;2.20;;;;;;;;;;4947927;28;20186;-66
2024/02/07 12:12:11;;;;;;;9.07;3.33;;;;;;;;;;4911850;28;20191;-66
2024/02/07 12:14:48;;;;;;;;;;;;;;;;;;;;;
2024/02/07 12:18:08;;;;;;;16.15;2.95;;;;;;;;;;4927736;28;20181;-66
2024/02/07 12:20:30;;;;;;;11.90;2.80;;;;;;;;;;4914751;28;20268;-66
2024/02/07 12:23:13;;;;;;;;;;;;;;;;;;;;;
2024/02/07 12:26:42;;;;;;;;;;;;;;;;;;;;;
2024/02/07 12:29:21;;;;;;;11.13;2.83;;;;;;;;;;4899059;28;20757;-66
2024/02/07 12:32:00;;;;;;;10.80;2.95;;;;;;;;;;4889416;28;20537;-66
2024/02/07 12:34:35;;;;;;;8.05;3.17;;;;;;;;;;4931431;28;20272;-66
2024/02/07 12:37:02;;;;;;;6.43;2.58;;;;;;;;;;4906647;28;20306;-66
2024/02/07 12:43:32;;;;;;;8.55;2.60;;;;;;;;;;4920425;28;20273;-66
2024/02/07 12:46:02;;;;;;;12.20;3.03;;;;;;;;;;4899466;28;20246;-66
2024/02/07 12:51:50;;;;;;;6.88;2.20;;;;;;;;;;4891580;28;20284;-66
2024/02/07 12:54:33;;;;;;;7.45;2.85;;;;;;;;;;4898670;28;20287;-66
2024/02/07 12:56:59;;;;;;;11.40;3.25;;;;;;;;;;4920802;28;20296;-66
2024/02/07 12:59:34;;;;;;;14.20;3.33;;;;;;;;;;4903894;28;20273;-66
2024/02/07 13:02:09;;;;;;;10.27;3.08;;;;;;;;;;4918953;28;20272;-66
2024/02/07 13:09:12;;;;;;;11.23;3.00;;;;;;;;;;4916940;28;20213;-66
2024/02/07 13:11:36;;;;;;;4.70;2.80;;;;;;;;;;4920768;28;20294;-66
2024/02/07 13:14:19;;;;;;;9.05;2.47;;;;;;;;;;4896754;28;20542;-66
2024/02/07 13:16:51;;;;;;;9.10;2.60;;;;;;;;;;4933777;28;20170;-66
2024/02/07 13:19:23;;;;;;;7.43;2.72;;;;;;;;;;4898326;28;20694;-66
2024/02/07 13:22:19;;;;;;;6.43;2.42;;;;;;;;;;4921593;28;20159;-66
2024/02/07 13:24:48;;;;;;;7.65;2.40;;;;;;;;;;4917825;28;20506;-66
2024/02/07 13:27:42;;;;;;;11.57;2.28;;;;;;;;;;4906941;28;20163;-66
2024/02/07 13:30:26;;;;;;;4.57;1.80;;;;;;;;;;4930978;28;20602;-66
2024/02/07 13:32:56;;;;;;;5.97;1.73;;;;;;;;;;4921187;28;20225;-66
2024/02/07 13:35:25;;;;;;;5.60;1.70;;;;;;;;;;4903739;28;20249;-66
2024/02/07 13:38:04;;;;;;;6.22;1.90;;;;;;;;;;4898813;28;20263;-66
2024/02/07 13:40:33;;;;;;;5.63;1.85;;;;;;;;;;4919699;28;20144;-66
2024/02/07 13:43:25;;;;;;;4.90;1.70;;;;;;;;;;4903947;28;20222;-66
2024/02/07 13:46:22;;;;;;;7.30;1.83;;;;;;;;;;4918884;28;20277;-66
2024/02/07 13:49:21;;;;;;;5.40;1.80;;;;;;;;;;4918905;28;20180;-66
2024/02/07 13:52:24;;;;;;;4.38;1.70;;;;;;;;;;4906117;28;20283;-66
2024/02/07 13:55:12;;;;;;;5.43;1.42;;;;;;;;;;4906921;28;20198;-66
2024/02/07 13:57:48;;;;;;;4.20;1.42;;;;;;;;;;4866624;28;20160;-66
2024/02/07 14:00:30;;;;;;;3.47;1.40;;;;;;;;;;4876126;28;20559;-67
2024/02/07 14:02:59;;;;;;;3.80;1.48;;;;;;;;;;4870690;28;20280;-66
2024/02/07 14:05:48;;;;;;;;;;;;;;;;;;;;;
2024/02/07 14:08:46;;;;;;;1.75;1.05;;;;;;;;;;4921186;28;20212;-66
2024/02/07 14:11:40;;;;;;;4.15;1.60;;;;;;;;;;4907452;28;20303;-66
2024/02/07 14:14:23;;;;;;;7.80;1.65;;;;;;;;;;4910298;28;20198;-66
2024/02/07 14:17:17;;;;;;;3.63;1.30;;;;;;;;;;4925649;28;20209;-66
2024/02/07 14:23:25;;;;;;;;;;;;;;;;;;;;;
2024/02/07 14:26:32;;;;;;;4.57;1.67;;;;;;;;;;4913367;28;20525;-66
2024/02/07 14:29:01;;;;;;;3.47;1.70;;;;;;;;;;4888320;28;20199;-66
2024/02/07 14:31:52;;;;;;;5.03;1.60;;;;;;;;;;4892705;28;20268;-66
2024/02/07 14:34:40;;;;;;;3.45;1.60;;;;;;;;;;4932209;28;20537;-66
2024/02/07 14:37:23;;;;;;;2.83;1.40;;;;;;;;;;4929959;28;20357;-66
2024/02/07 14:43:54;;;;;;;7.20;1.88;;;;;;;;;;4912193;28;20241;-65
2024/02/07 14:46:45;;;;;;;6.13;1.75;;;;;;;;;;4920355;28;20201;-66
2024/02/07 14:49:27;;;;;;;6.20;1.67;;;;;;;;;;4897816;28;20166;-65
2024/02/07 14:51:53;;;;;;;8.60;1.90;;;;;;;;;;4906107;28;20242;-65
2024/02/07 14:54:29;;;;;;;7.25;2.33;;;;;;;;;;4915918;28;20271;-65
2024/02/07 14:57:05;;;;;;;4.75;2.00;;;;;;;;;;4903444;28;20264;-65
2024/02/07 14:59:49;;;;;;;;;;;;;;;;;;;;;
2024/02/07 15:03:10;;;;;;;3.75;1.80;;;;;;;;;;4917997;28;20164;-66
2024/02/07 15:05:46;;;;;;;6.20;2.17;;;;;;;;;;4921258;28;20668;-66
2024/02/07 15:08:38;;;;;;;7.22;1.77;;;;;;;;;;4891805;28;20649;-67
2024/02/07 15:11:23;;;;;;;5.80;2.13;;;;;;;;;;4911270;28;20221;-68
2024/02/07 15:14:38;;;;;;;5.18;1.60;;;;;;;;;;4915057;28;20627;-68
2024/02/07 15:17:48;;;;;;;6.25;2.03;;;;;;;;;;4900180;28;20276;-68
2024/02/07 15:23:47;;;;;;;;;;;;;;;;;;;;;
2024/02/07 15:26:52;;;;;;;6.75;1.63;;;;;;;;;;4907653;28;20210;-68
2024/02/07 15:30:02;;;;;;;4.07;1.40;;;;;;;;;;4904015;28;20160;-68
2024/02/07 15:32:56;;;;;;;6.03;1.70;;;;;;;;;;4887664;28;20198;-68
2024/02/07 15:35:37;;;;;;;6.13;1.50;;;;;;;;;;4895657;28;20201;-68
2024/02/07 15:38:21;;;;;;;4.43;1.83;;;;;;;;;;4909651;28;20214;-68
2024/02/07 15:43:49;;;;;;;7.80;2.20;;;;;;;;;;4906411;28;20209;-67
2024/02/07 15:46:33;;;;;;;9.90;2.88;;;;;;;;;;4910645;28;20517;-66
2024/02/07 15:49:15;;;;;;;6.60;2.28;;;;;;;;;;4908246;28;20167;-67
2024/02/07 15:51:45;;;;;;;7.47;2.05;;;;;;;;;;4892213;28;20503;-68
2024/02/07 15:54:14;;;;;;;6.32;2.20;;;;;;;;;;4916305;28;20296;-66
2024/02/07 15:57:20;;;;;;;8.80;2.47;;;;;;;;;;4893879;28;20171;-67
2024/02/07 15:59:51;;;;;;;6.32;2.08;;;;;;;;;;4910198;28;20995;-68
2024/02/07 16:02:48;;;;;;;;;;;;;;;;;;;;;
2024/02/07 16:05:28;;;;;;;6.18;2.00;;;;;;;;;;4911564;28;20169;-66
2024/02/07 16:08:11;;;;;;;;;;;;;;;;;;;;;
2024/02/07 16:11:13;;;;;;;;;;;;;;;;;;;;;
2024/02/07 16:13:41;;;;;;;4.32;2.30;;;;;;;;;;4904805;28;20185;-66
2024/02/07 16:17:08;;;;;;;12.32;2.63;;;;;;;;;;4913058;28;20218;-66
2024/02/07 16:20:17;;;;;;;6.97;2.10;;;;;;;;;;4915490;28;20259;-66
2024/02/07 16:26:06;;;;;;;8.93;2.00;;;;;;;;;;4903591;28;20206;-66
2024/02/07 16:28:39;;;;;;;10.25;2.60;;;;;;;;;;4913675;28;20240;-66
2024/02/07 16:31:23;;;;;;;7.88;2.05;;;;;;;;;;4921242;28;20295;-66
2024/02/07 16:33:54;;;;;;;7.30;2.05;;;;;;;;;;4921522;28;20189;-66
2024/02/07 16:36:47;;;;;;;6.45;2.22;;;;;;;;;;4900763;28;20167;-66
2024/02/07 16:39:37;;;;;;;;;;;;;;;;;;;;;
2024/02/07 16:42:27;;;;;;;8.93;1.90;;;;;;;;;;4915823;28;20204;-66
2024/02/07 16:45:12;;;;;;;10.55;2.03;;;;;;;;;;4918643;28;20202;-66
2024/02/07 16:48:43;;;;;;;11.05;1.90;;;;;;;;;;4909953;28;20183;-67
2024/02/07 16:54:32;;;;;;;3.70;1.35;;;;;;;;;;4908833;28;20160;-66
2024/02/07 16:57:29;;;;;;;5.65;1.58;;;;;;;;;;4906100;28;20216;-66
2024/02/07 17:00:49;;;;;;;9.13;2.10;;;;;;;;;;4910089;28;20206;-66
2024/02/07 17:03:36;;;;;;;5.93;1.98;;;;;;;;;;4927843;28;20368;-66
2024/02/07 17:06:51;;;;;;;5.13;1.50;;;;;;;;;;4896572;28;20143;-66
2024/02/07 17:09:28;;;;;;;10.23;1.80;;;;;;;;;;4918616;28;20274;-67
2024/02/07 17:12:01;;;;;;;6.68;1.40;;;;;;;;;;4904956;28;20269;-66
2024/02/07 17:14:56;;;;;;;9.68;1.52;;;;;;;;;;4905844;28;20293;-66
2024/02/07 17:21:02;;;;;;;;;;;;;;;;;;;;;
2024/02/07 17:24:04;;;;;;;7.32;1.90;;;;;;;;;;4864353;28;20195;-66
2024/02/07 17:26:33;;;;;;;9.75;2.25;;;;;;;;;;4859088;28;20723;-67
2024/02/07 17:28:59;;;;;;;6.05;1.77;;;;;;;;;;4864932;28;20264;-67
2024/02/07 17:31:48;;;;;;;8.02;2.03;;;;;;;;;;4884682;28;20584;-66
2024/02/07 17:34:14;;;;;;;7.95;2.20;;;;;;;;;;4905574;28;20195;-66
2024/02/07 17:36:53;;;;;;;11.63;2.25;;;;;;;;;;4900416;28;20288;-66
2024/02/07 17:39:33;;;;;;;9.80;2.00;;;;;;;;;;4901301;28;20197;-66
2024/02/07 17:42:13;;;;;;;;;;;;;;;;;;;;;
2024/02/07 17:45:09;;;;;;;11.82;2.10;;;;;;;;;;4923271;28;20233;-66
2024/02/07 17:47:40;;;;;;;9.07;1.95;;;;;;;;;;4915018;28;20275;-66
2024/02/07 17:50:10;;;;;;;5.45;1.58;;;;;;;;;;4904979;28;20190;-67
2024/02/07 17:52:53;;;;;;;8.45;2.15;;;;;;;;;;4918909;28;20193;-66
2024/02/07 17:55:30;;;;;;;4.82;2.10;;;;;;;;;;4911345;28;20563;-67
2024/02/07 17:58:07;;;;;;;8.77;2.10;;;;;;;;;;4932025;28;20176;-66
2024/02/07 18:00:33;;;;;;;5.65;2.10;;;;;;;;;;4894664;28;20187;-66
2024/02/07 18:03:19;;;;;;;8.13;2.20;;;;;;;;;;4899078;28;20692;-66
2024/02/07 18:05:57;;;;;;;5.03;2.00;;;;;;;;;;4887126;28;20229;-67
2024/02/07 18:09:13;;;;;;;3.55;1.80;;;;;;;;;;4895635;28;20184;-67
2024/02/07 18:12:01;;;;;;;9.70;2.10;;;;;;;;;;4917813;28;20209;-67
2024/02/07 18:14:37;;;;;;;7.00;1.90;;;;;;;;;;4908730;28;20305;-67
2024/02/07 18:17:19;;;;;;;7.60;2.13;;;;;;;;;;4903433;28;20281;-67
2024/02/07 18:20:01;;;;;;;7.20;2.23;;;;;;;;;;4914280;28;20156;-66
2024/02/07 18:22:40;;;;;;;5.80;1.73;;;;;;;;;;4904192;28;20163;-67
2024/02/07 18:25:47;;;;;;;7.80;2.55;;;;;;;;;;4928057;28;20286;-66
2024/02/07 18:29:04;;;;;;;13.65;2.55;;;;;;;;;;4884566;28;20558;-66
2024/02/07 18:31:51;;;;;;;6.35;2.03;;;;;;;;;;4879860;28;20335;-66
2024/02/07 18:34:53;;;;;;;;;;;;;;;;;;;;;
2024/02/07 18:37:46;;;;;;;4.03;2.00;;;;;;;;;;4912716;28;20224;-67
2024/02/07 18:40:47;;;;;;;4.45;1.83;;;;;;;;;;4918768;28;20202;-66
2024/02/07 18:43:26;;;;;;;4.95;1.77;;;;;;;;;;4942339;28;20190;-67
2024/02/07 18:45:59;;;;;;;4.40;1.83;;;;;;;;;;4923545;28;20171;-67
2024/02/07 18:48:29;;;;;;;8.90;1.85;;;;;;;;;;4898729;28;20284;-67
2024/02/07 18:51:14;;;;;;;5.88;1.98;;;;;;;;;;4903533;28;20189;-66
2024/02/07 18:53:56;;;;;;;;;;;;;;;;;;;;;
2024/02/07 18:57:16;;;;;;;;;;;;;;;;;;;;;
2024/02/07 18:59:51;;;;;;;4.85;1.60;;;;;;;;;;4906733;28;20182;-67
2024/02/07 19:02:42;;;;;;;13.10;2.05;;;;;;;;;;4914473;28;20193;-67
2024/02/07 19:05:12;;;;;;;10.63;3.03;;;;;;;;;;4889274;28;20190;-66
2024/02/07 19:07:39;;;;;;;9.40;2.45;;;;;;;;;;4891870;28;20247;-66
2024/02/07 19:10:13;;;;;;;8.40;2.75;;;;;;;;;;4917915;28;20276;-66
2024/02/07 19:12:45;;;;;;;5.07;2.15;;;;;;;;;;4901118;28;20221;-67
2024/02/07 19:15:19;;;;;;;4.97;1.98;;;;;;;;;;4897044;28;20202;-67
2024/02/07 19:18:12;;;;;;;8.27;2.10;;;;;;;;;;4929460;28;20281;-66
2024/02/07 19:21:20;;;;;;;7.07;1.75;;;;;;;;;;4954399;27;20271;-67
2024/02/07 19:23:53;;;;;;;5.57;1.95;;;;;;;;;;4923202;28;20177;-66
2024/02/07 19:26:31;;;;;;;4.00;1.63;;;;;;;;;;4917743;28;20221;-67
2024/02/07 19:29:15;;;;;;;4.97;1.65;;;;;;;;;;4920449;28;20418;-66
2024/02/07 19:31:59;;;;;;;;;;;;;;;;;;;;;
2024/02/07 19:34:29;;;;;;;4.78;1.92;;;;;;;;;;4928116;28;20549;-66
2024/02/07 19:37:01;;;;;;;8.15;1.70;;;;;;;;;;4909389;28;20170;-67
2024/02/07 19:42:38;;;;;;;5.45;1.52;;;;;;;;;;4899840;28;20198;-67
2024/02/07 19:45:13;;;;;;;8.68;2.38;;;;;;;;;;4905784;28;20242;-66
2024/02/07 19:47:57;;;;;;;7.93;2.00;;;;;;;;;;4938211;28;20495;-66
2024/02/07 19:50:30;;;;;;;5.25;1.95;;;;;;;;;;4906196;28;20191;-66